Time;durP1;ratioP1;P1;durP2;ratioP2;P2;SDS_P1;SDS_P2;PMS_P1;PMS_P2;Temp;Humidity;BMP_temperature;BMP_pressure;BME280_temperature;BME280_humidity;BME280_pressure;Samples;Min_cycle;Max_cycle;Signal;HPM_P1;HPM_P2
2022/12/10 10:10:00;;;;;;;15.07;12.37;;;;;;;6.42;87.60;97988.44;6383167;22;20208;-85
2022/12/10 10:16:07;;;;;;;14.40;11.10;;;;;;;8.67;76.54;97984.44;6327405;22;42210;-83
2022/12/10 11:51:05;;;;;;;15.70;12.13;;;;;;;9.73;55.15;98069.38;6375171;22;43658;-84
2022/12/10 12:00:36;;;;;;;15.10;11.70;;;;;;;8.91;54.89;98072.50;6352028;22;44063;-84
2022/12/10 12:15:10;;;;;;;11.90;9.77;;;;;;;8.24;57.86;98066.47;6373663;22;41718;-84
2022/12/10 12:18:15;;;;;;;12.53;9.80;;;;;;;7.97;57.87;98026.06;6345169;22;41186;-84
2022/12/10 13:20:46;;;;;;;17.93;10.80;;;;;;;4.89;68.64;98021.59;6373510;22;43814;-83
2022/12/10 13:23:47;;;;;;;15.53;11.33;;;;;;;4.87;69.13;98010.31;6320409;22;40355;-84
2022/12/10 13:26:36;;;;;;;17.17;11.57;;;;;;;4.95;69.73;98037.81;6327715;22;40920;-83
2022/12/10 13:29:45;;;;;;;17.43;11.50;;;;;;;5.02;69.99;98044.47;6351485;22;41911;-83
2022/12/10 13:35:31;;;;;;;15.03;10.63;;;;;;;4.95;70.08;98064.06;6351064;22;41565;-83
2022/12/10 14:05:15;;;;;;;13.53;9.60;;;;;;;4.54;70.74;98095.06;6395165;22;42960;-81
2022/12/10 14:07:48;;;;;;;14.23;10.03;;;;;;;4.50;70.45;98074.31;6357944;22;39411;-80
2022/12/10 14:10:19;;;;;;;13.50;9.63;;;;;;;4.66;70.34;98094.44;6387319;22;41532;-82
2022/12/10 14:13:01;;;;;;;15.97;10.77;;;;;;;4.14;70.69;98011.50;6358552;22;41981;-81
2022/12/10 14:15:31;;;;;;;14.47;10.07;;;;;;;4.68;70.62;98112.72;6354709;22;41972;-80
2022/12/10 14:18:17;;;;;;;13.97;10.53;;;;;;;4.68;71.24;98117.97;6352838;22;39110;-81
2022/12/10 14:20:51;;;;;;;14.93;10.07;;;;;;;4.61;71.46;98109.53;6351493;22;42442;-82
2022/12/10 14:23:37;;;;;;;14.23;10.17;;;;;;;4.33;71.32;98080.38;6351511;22;43466;-83
2022/12/10 14:26:08;;;;;;;14.83;9.93;;;;;;;4.53;71.62;98119.59;6351007;22;41209;-82
2022/12/10 14:28:54;;;;;;;15.37;11.63;;;;;;;4.37;72.04;98107.31;6349330;22;40106;-83
2022/12/10 14:31:27;;;;;;;13.53;9.90;;;;;;;4.14;72.93;98087.47;6347136;22;40693;-83
2022/12/10 14:33:58;;;;;;;14.10;9.87;;;;;;;4.28;73.04;98124.34;6351333;22;41906;-81
2022/12/10 14:36:35;;;;;;;10.70;8.30;;;;;;;3.98;74.33;98069.88;6351182;22;41177;-83
2022/12/10 14:39:03;;;;;;;11.40;9.37;;;;;;;4.11;75.05;98105.97;6351007;22;40805;-82
2022/12/10 14:41:33;;;;;;;11.83;8.77;;;;;;;4.17;74.86;98116.16;6352014;22;40636;-82
2022/12/10 14:44:04;;;;;;;12.73;9.10;;;;;;;3.98;75.02;98098.69;6352620;22;42891;-80
2022/12/10 14:46:33;;;;;;;12.87;9.53;;;;;;;4.14;75.45;98132.00;6352252;22;41133;-80
2022/12/10 14:49:01;;;;;;;14.90;9.83;;;;;;;3.96;75.47;98107.53;6353153;22;41365;-81
2022/12/10 14:51:34;;;;;;;12.73;9.63;;;;;;;4.03;76.15;98139.53;6352869;22;40468;-81
2022/12/10 14:54:02;;;;;;;13.90;10.17;;;;;;;3.79;77.00;98126.69;6352385;22;43781;-81
2022/12/10 14:56:34;;;;;;;14.73;9.93;;;;;;;3.77;77.21;98154.72;6378553;22;42093;-81
2022/12/10 14:59:07;;;;;;;16.10;10.77;;;;;;;3.66;78.03;98162.22;6352235;22;40605;-82
2022/12/10 15:01:40;;;;;;;16.97;11.73;;;;;;;3.48;78.92;98166.50;6352134;22;40951;-82
2022/12/10 15:04:15;;;;;;;13.97;10.30;;;;;;;3.25;79.62;98154.44;6352812;22;43457;-81
2022/12/10 15:06:45;;;;;;;15.23;10.63;;;;;;;3.19;79.93;98157.34;6352747;22;44033;-81
2022/12/10 15:09:17;;;;;;;12.67;9.90;;;;;;;3.02;80.51;98133.69;6378036;22;40934;-81
2022/12/10 15:11:45;;;;;;;14.30;9.83;;;;;;;2.95;80.18;98127.03;6352439;22;43342;-80
2022/12/10 15:14:19;;;;;;;14.73;10.80;;;;;;;3.05;80.08;98159.72;6378596;22;41838;-81
2022/12/10 15:16:48;;;;;;;11.63;8.33;;;;;;;3.00;80.15;98159.06;6352366;22;41531;-81
2022/12/10 15:19:19;;;;;;;12.47;9.03;;;;;;;3.05;80.20;98167.56;6352510;22;39932;-81
2022/12/10 15:22:18;;;;;;;12.37;8.70;;;;;;;3.18;80.11;98180.97;6352716;22;41081;-82
2022/12/10 15:24:46;;;;;;;12.23;8.90;;;;;;;3.15;79.90;98187.16;6352595;22;41512;-81
2022/12/10 15:27:18;;;;;;;12.70;9.03;;;;;;;3.19;79.71;98185.28;6352444;22;42170;-80
2022/12/10 15:29:46;;;;;;;12.93;8.90;;;;;;;3.18;79.45;98187.03;6378770;22;38859;-81
2022/12/10 15:32:17;;;;;;;12.47;9.43;;;;;;;3.19;79.48;98186.13;6406885;22;42173;-81
2022/12/10 15:34:47;;;;;;;14.73;11.37;;;;;;;3.19;80.07;98188.75;6379227;22;42952;-81
2022/12/10 15:37:35;;;;;;;15.53;11.00;;;;;;;3.18;80.14;98192.28;6352513;22;42525;-81
